Terminal Aerodrome Forecast
Issued by NWS

Home | Current Version | Previous Version | Text Only | Print | Product List | Glossary Off
Versions: 1 2 3 4 5 6 7 8 9 10 11 12 13 14 15

898
FTUS43 KICT 192320
TAFHUT
TAF
KHUT 192320Z 2000/2024 17014G20KT 5SM BR OVC015
      TEMPO 2004/2006 4SM -TSRA OVC006CB
     FM200600 17010KT 4SM -RA BR OVC010
     FM201200 19010KT P6SM SCT015=

USA.gov is the U.S. government's official web portal to all federal, state and local government web resources and services.